sensor_id;sensor_type;location;lat;lon;timestamp;pressure;altitude;pressure_sealevel;temperature;humidity
30636;BME280;17400;52.392;9.750;2023-08-06T00:00:47;100147.44;;;16.72;100.00
30636;BME280;17400;52.392;9.750;2023-08-06T00:03:15;100144.63;;;16.67;100.00
30636;BME280;17400;52.392;9.750;2023-08-06T00:05:43;100141.56;;;16.63;100.00
30636;BME280;17400;52.392;9.750;2023-08-06T00:08:11;100146.63;;;16.55;100.00
30636;BME280;17400;52.392;9.750;2023-08-06T00:10:39;100145.81;;;16.54;100.00
30636;BME280;17400;52.392;9.750;2023-08-06T00:13:08;100143.31;;;16.53;100.00
30636;BME280;17400;52.392;9.750;2023-08-06T00:15:39;100140.66;;;16.58;100.00
30636;BME280;17400;52.392;9.750;2023-08-06T00:18:08;100137.34;;;16.56;100.00
30636;BME280;17400;52.392;9.750;2023-08-06T00:20:38;100130.41;;;16.48;100.00
30636;BME280;17400;52.392;9.750;2023-08-06T00:23:07;100127.59;;;16.43;100.00
30636;BME280;17400;52.392;9.750;2023-08-06T00:25:35;100130.06;;;16.44;100.00
30636;BME280;17400;52.392;9.750;2023-08-06T00:28:04;100112.69;;;16.51;100.00
30636;BME280;17400;52.392;9.750;2023-08-06T00:30:32;100114.91;;;16.54;100.00
30636;BME280;17400;52.392;9.750;2023-08-06T00:33:00;100119.00;;;16.51;100.00
30636;BME280;17400;52.392;9.750;2023-08-06T00:35:31;100113.28;;;16.53;100.00
30636;BME280;17400;52.392;9.750;2023-08-06T00:38:03;100118.16;;;16.51;100.00
30636;BME280;17400;52.392;9.750;2023-08-06T00:40:31;100106.69;;;16.54;100.00
30636;BME280;17400;52.392;9.750;2023-08-06T00:42:59;100106.22;;;16.57;100.00
30636;BME280;17400;52.392;9.750;2023-08-06T00:45:27;100105.38;;;16.56;100.00
30636;BME280;17400;52.392;9.750;2023-08-06T00:47:56;100092.88;;;16.60;100.00
30636;BME280;17400;52.392;9.750;2023-08-06T00:50:24;100089.91;;;16.62;100.00
30636;BME280;17400;52.392;9.750;2023-08-06T00:52:54;100087.97;;;16.62;100.00
30636;BME280;17400;52.392;9.750;2023-08-06T00:55:22;100080.84;;;16.61;100.00
30636;BME280;17400;52.392;9.750;2023-08-06T00:57:50;100074.00;;;16.59;100.00
30636;BME280;17400;52.392;9.750;2023-08-06T01:00:20;100068.53;;;16.59;100.00
30636;BME280;17400;52.392;9.750;2023-08-06T01:02:48;100060.84;;;16.56;100.00
30636;BME280;17400;52.392;9.750;2023-08-06T01:05:16;100054.56;;;16.55;100.00
30636;BME280;17400;52.392;9.750;2023-08-06T01:08:02;100055.69;;;16.59;100.00
30636;BME280;17400;52.392;9.750;2023-08-06T01:10:43;100052.38;;;16.57;100.00
30636;BME280;17400;52.392;9.750;2023-08-06T01:13:20;100052.38;;;16.57;100.00
30636;BME280;17400;52.392;9.750;2023-08-06T01:15:52;100039.56;;;16.58;100.00
30636;BME280;17400;52.392;9.750;2023-08-06T01:18:22;100045.84;;;16.58;100.00
30636;BME280;17400;52.392;9.750;2023-08-06T01:20:52;100039.56;;;16.58;100.00
30636;BME280;17400;52.392;9.750;2023-08-06T01:23:20;100039.06;;;16.61;100.00
30636;BME280;17400;52.392;9.750;2023-08-06T01:25:55;100041.78;;;16.61;100.00
30636;BME280;17400;52.392;9.750;2023-08-06T01:28:37;100037.38;;;16.60;100.00
30636;BME280;17400;52.392;9.750;2023-08-06T01:31:10;100043.13;;;16.58;100.00
30636;BME280;17400;52.392;9.750;2023-08-06T01:33:43;100039.78;;;16.56;100.00
30636;BME280;17400;52.392;9.750;2023-08-06T01:36:15;100038.97;;;16.56;100.00
30636;BME280;17400;52.392;9.750;2023-08-06T01:38:44;100038.97;;;16.56;100.00
30636;BME280;17400;52.392;9.750;2023-08-06T01:41:12;100028.56;;;16.53;100.00
30636;BME280;17400;52.392;9.750;2023-08-06T01:43:40;100036.19;;;16.51;100.00
30636;BME280;17400;52.392;9.750;2023-08-06T01:46:08;100032.13;;;16.53;100.00
30636;BME280;17400;52.392;9.750;2023-08-06T01:48:36;100028.88;;;16.56;100.00
30636;BME280;17400;52.392;9.750;2023-08-06T01:51:04;100022.53;;;16.51;100.00
30636;BME280;17400;52.392;9.750;2023-08-06T01:53:33;100018.97;;;16.50;100.00
30636;BME280;17400;52.392;9.750;2023-08-06T01:56:01;100012.59;;;16.44;100.00
30636;BME280;17400;52.392;9.750;2023-08-06T01:58:29;100015.91;;;16.46;100.00
30636;BME280;17400;52.392;9.750;2023-08-06T02:00:58;100013.75;;;16.48;100.00
30636;BME280;17400;52.392;9.750;2023-08-06T02:03:26;100003.91;;;16.47;100.00
30636;BME280;17400;52.392;9.750;2023-08-06T02:05:54;100011.03;;;16.48;100.00
30636;BME280;17400;52.392;9.750;2023-08-06T02:08:22;100011.22;;;16.42;100.00
30636;BME280;17400;52.392;9.750;2023-08-06T02:10:51;100009.50;;;16.36;100.00
30636;BME280;17400;52.392;9.750;2023-08-06T02:13:20;100007.75;;;16.29;100.00
30636;BME280;17400;52.392;9.750;2023-08-06T02:15:48;100016.22;;;16.28;100.00
30636;BME280;17400;52.392;9.750;2023-08-06T02:18:16;100021.50;;;16.35;100.00
30636;BME280;17400;52.392;9.750;2023-08-06T02:20:54;100011.97;;;16.37;100.00
30636;BME280;17400;52.392;9.750;2023-08-06T02:23:23;100015.28;;;16.39;100.00
30636;BME280;17400;52.392;9.750;2023-08-06T02:25:58;100015.84;;;16.41;100.00
30636;BME280;17400;52.392;9.750;2023-08-06T02:28:28;100013.69;;;16.43;100.00
30636;BME280;17400;52.392;9.750;2023-08-06T02:30:56;100012.84;;;16.43;100.00
30636;BME280;17400;52.392;9.750;2023-08-06T02:33:24;100004.09;;;16.41;100.00
30636;BME280;17400;52.392;9.750;2023-08-06T02:35:58;100007.09;;;16.39;100.00
30636;BME280;17400;52.392;9.750;2023-08-06T02:38:26;100004.59;;;16.38;100.00
30636;BME280;17400;52.392;9.750;2023-08-06T02:40:54;100001.38;;;16.41;100.00
30636;BME280;17400;52.392;9.750;2023-08-06T02:43:24;99999.47;;;16.41;100.00
30636;BME280;17400;52.392;9.750;2023-08-06T02:45:51;99998.63;;;16.41;100.00
30636;BME280;17400;52.392;9.750;2023-08-06T02:48:19;99987.38;;;16.37;100.00
30636;BME280;17400;52.392;9.750;2023-08-06T02:50:47;99993.38;;;16.34;100.00
30636;BME280;17400;52.392;9.750;2023-08-06T02:53:15;99977.72;;;16.29;100.00
30636;BME280;17400;52.392;9.750;2023-08-06T02:55:45;99985.09;;;16.29;100.00
30636;BME280;17400;52.392;9.750;2023-08-06T02:58:14;99977.91;;;16.23;100.00
30636;BME280;17400;52.392;9.750;2023-08-06T03:00:44;99977.84;;;16.18;100.00
30636;BME280;17400;52.392;9.750;2023-08-06T03:03:12;99965.25;;;16.16;100.00
30636;BME280;17400;52.392;9.750;2023-08-06T03:05:40;99956.25;;;16.16;100.00
30636;BME280;17400;52.392;9.750;2023-08-06T03:08:08;99947.81;;;16.18;100.00
30636;BME280;17400;52.392;9.750;2023-08-06T03:10:46;99943.41;;;16.16;100.00
30636;BME280;17400;52.392;9.750;2023-08-06T03:13:15;99941.28;;;16.19;100.00
30636;BME280;17400;52.392;9.750;2023-08-06T03:15:51;99946.72;;;16.19;100.00
30636;BME280;17400;52.392;9.750;2023-08-06T03:18:19;99945.06;;;16.18;100.00
30636;BME280;17400;52.392;9.750;2023-08-06T03:20:48;99937.47;;;16.20;100.00
30636;BME280;17400;52.392;9.750;2023-08-06T03:23:15;99930.59;;;16.17;100.00
30636;BME280;17400;52.392;9.750;2023-08-06T03:25:44;99930.53;;;16.12;100.00
30636;BME280;17400;52.392;9.750;2023-08-06T03:28:12;99925.88;;;16.12;100.00
30636;BME280;17400;52.392;9.750;2023-08-06T03:30:40;99928.13;;;16.15;100.00
30636;BME280;17400;52.392;9.750;2023-08-06T03:33:09;99927.03;;;16.16;100.00
30636;BME280;17400;52.392;9.750;2023-08-06T03:35:37;99921.56;;;16.16;100.00
30636;BME280;17400;52.392;9.750;2023-08-06T03:38:05;99921.56;;;16.16;100.00
30636;BME280;17400;52.392;9.750;2023-08-06T03:40:34;99916.69;;;16.19;100.00
30636;BME280;17400;52.392;9.750;2023-08-06T03:43:03;99916.94;;;16.17;100.00
30636;BME280;17400;52.392;9.750;2023-08-06T03:45:30;99921.56;;;16.16;100.00
30636;BME280;17400;52.392;9.750;2023-08-06T03:47:58;99925.41;;;16.15;100.00
30636;BME280;17400;52.392;9.750;2023-08-06T03:50:28;99917.44;;;16.14;100.00
30636;BME280;17400;52.392;9.750;2023-08-06T03:52:56;99914.97;;;16.12;100.00
30636;BME280;17400;52.392;9.750;2023-08-06T03:55:24;99916.88;;;16.12;100.00
30636;BME280;17400;52.392;9.750;2023-08-06T03:57:52;99917.16;;;16.10;100.00
30636;BME280;17400;52.392;9.750;2023-08-06T04:00:20;99910.53;;;16.06;100.00
30636;BME280;17400;52.392;9.750;2023-08-06T04:02:48;99903.94;;;16.02;100.00
30636;BME280;17400;52.392;9.750;2023-08-06T04:05:17;99898.97;;;15.99;100.00
30636;BME280;17400;52.392;9.750;2023-08-06T04:07:46;99895.69;;;15.97;100.00
30636;BME280;17400;52.392;9.750;2023-08-06T04:10:14;99898.91;;;15.94;100.00
30636;BME280;17400;52.392;9.750;2023-08-06T04:12:42;99889.91;;;15.93;100.00
30636;BME280;17400;52.392;9.750;2023-08-06T04:15:10;99892.88;;;15.92;100.00
30636;BME280;17400;52.392;9.750;2023-08-06T04:17:38;99898.59;;;15.90;100.00
30636;BME280;17400;52.392;9.750;2023-08-06T04:20:07;99895.28;;;15.88;100.00
30636;BME280;17400;52.392;9.750;2023-08-06T04:22:35;99891.16;;;15.86;100.00
30636;BME280;17400;52.392;9.750;2023-08-06T04:25:05;99896.59;;;15.86;100.00
30636;BME280;17400;52.392;9.750;2023-08-06T04:27:33;99897.69;;;15.85;100.00
30636;BME280;17400;52.392;9.750;2023-08-06T04:30:04;99896.59;;;15.86;100.00
30636;BME280;17400;52.392;9.750;2023-08-06T04:32:35;99903.66;;;15.81;100.00
30636;BME280;17400;52.392;9.750;2023-08-06T04:35:04;99901.16;;;15.80;100.00
30636;BME280;17400;52.392;9.750;2023-08-06T04:37:32;99895.47;;;15.81;100.00
30636;BME280;17400;52.392;9.750;2023-08-06T04:39:59;99896.88;;;15.84;100.00
30636;BME280;17400;52.392;9.750;2023-08-06T04:42:29;99899.94;;;15.88;100.00
30636;BME280;17400;52.392;9.750;2023-08-06T04:44:56;99898.81;;;15.89;100.00
30636;BME280;17400;52.392;9.750;2023-08-06T04:47:24;99902.97;;;15.91;100.00
30636;BME280;17400;52.392;9.750;2023-08-06T04:49:53;99907.94;;;15.94;100.00
30636;BME280;17400;52.392;9.750;2023-08-06T04:52:21;99897.31;;;15.98;100.00
30636;BME280;17400;52.392;9.750;2023-08-06T04:54:49;99902.28;;;16.01;100.00
30636;BME280;17400;52.392;9.750;2023-08-06T04:57:17;99902.97;;;15.91;100.00
30636;BME280;17400;52.392;9.750;2023-08-06T04:59:46;99905.88;;;15.85;100.00
30636;BME280;17400;52.392;9.750;2023-08-06T05:02:14;99911.16;;;15.91;100.00
30636;BME280;17400;52.392;9.750;2023-08-06T05:04:42;99910.66;;;15.94;100.00
30636;BME280;17400;52.392;9.750;2023-08-06T05:07:10;99905.28;;;15.99;100.00
30636;BME280;17400;52.392;9.750;2023-08-06T05:09:38;99908.03;;;16.05;100.00
30636;BME280;17400;52.392;9.750;2023-08-06T05:12:07;99900.75;;;16.10;100.00
30636;BME280;17400;52.392;9.750;2023-08-06T05:14:35;99901.91;;;16.14;100.00
30636;BME280;17400;52.392;9.750;2023-08-06T05:17:05;99888.81;;;16.16;100.00
30636;BME280;17400;52.392;9.750;2023-08-06T05:19:33;99888.31;;;16.20;100.00
30636;BME280;17400;52.392;9.750;2023-08-06T05:22:00;99897.91;;;16.22;100.00
30636;BME280;17400;52.392;9.750;2023-08-06T05:24:29;99899.31;;;16.25;100.00
30636;BME280;17400;52.392;9.750;2023-08-06T05:26:56;99899.59;;;16.28;100.00
30636;BME280;17400;52.392;9.750;2023-08-06T05:29:24;99906.47;;;16.31;100.00
30636;BME280;17400;52.392;9.750;2023-08-06T05:31:54;99910.28;;;16.30;100.00
30636;BME280;17400;52.392;9.750;2023-08-06T05:34:24;99908.63;;;16.29;100.00
30636;BME280;17400;52.392;9.750;2023-08-06T05:36:52;99905.50;;;16.20;100.00
30636;BME280;17400;52.392;9.750;2023-08-06T05:39:20;99905.19;;;16.16;100.00
30636;BME280;17400;52.392;9.750;2023-08-06T05:41:48;99899.25;;;16.20;100.00
30636;BME280;17400;52.392;9.750;2023-08-06T05:44:17;99894.59;;;16.20;100.00
30636;BME280;17400;52.392;9.750;2023-08-06T05:46:45;99893.84;;;16.25;100.00
30636;BME280;17400;52.392;9.750;2023-08-06T05:49:13;99895.53;;;16.31;100.00
30636;BME280;17400;52.392;9.750;2023-08-06T05:51:42;99896.66;;;16.35;100.00
30636;BME280;17400;52.392;9.750;2023-08-06T05:54:10;99902.19;;;16.40;100.00
30636;BME280;17400;52.392;9.750;2023-08-06T05:56:38;99901.69;;;16.43;100.00
30636;BME280;17400;52.392;9.750;2023-08-06T05:59:06;99898.44;;;16.46;100.00
30636;BME280;17400;52.392;9.750;2023-08-06T06:01:34;99900.72;;;16.55;100.00
30636;BME280;17400;52.392;9.750;2023-08-06T06:04:02;99895.34;;;16.65;100.00
30636;BME280;17400;52.392;9.750;2023-08-06T06:06:30;99902.81;;;16.70;100.00
30636;BME280;17400;52.392;9.750;2023-08-06T06:08:59;99904.13;;;16.67;100.00
30636;BME280;17400;52.392;9.750;2023-08-06T06:11:27;99900.88;;;16.70;100.00
30636;BME280;17400;52.392;9.750;2023-08-06T06:13:55;99891.03;;;16.69;100.00
30636;BME280;17400;52.392;9.750;2023-08-06T06:16:23;99886.16;;;16.71;100.00
30636;BME280;17400;52.392;9.750;2023-08-06T06:18:50;99884.84;;;16.79;100.00
30636;BME280;17400;52.392;9.750;2023-08-06T06:21:19;99896.13;;;16.88;100.00
30636;BME280;17400;52.392;9.750;2023-08-06T06:23:46;99891.72;;;16.87;100.00
30636;BME280;17400;52.392;9.750;2023-08-06T06:26:16;99883.53;;;16.87;100.00
30636;BME280;17400;52.392;9.750;2023-08-06T06:28:43;99883.06;;;16.90;100.00
30636;BME280;17400;52.392;9.750;2023-08-06T06:31:11;99880.13;;;16.96;100.00
30636;BME280;17400;52.392;9.750;2023-08-06T06:33:39;99877.16;;;17.03;100.00
30636;BME280;17400;52.392;9.750;2023-08-06T06:36:07;99877.75;;;17.10;100.00
30636;BME280;17400;52.392;9.750;2023-08-06T06:38:36;99883.28;;;17.15;100.00
30636;BME280;17400;52.392;9.750;2023-08-06T06:41:04;99887.13;;;17.20;100.00
30636;BME280;17400;52.392;9.750;2023-08-06T06:43:33;99877.50;;;17.49;100.00
30636;BME280;17400;52.392;9.750;2023-08-06T06:46:01;99879.78;;;17.63;100.00
30636;BME280;17400;52.392;9.750;2023-08-06T06:48:32;99873.78;;;17.71;100.00
30636;BME280;17400;52.392;9.750;2023-08-06T06:51:00;99878.22;;;17.77;100.00
30636;BME280;17400;52.392;9.750;2023-08-06T06:53:28;99873.59;;;17.88;100.00
30636;BME280;17400;52.392;9.750;2023-08-06T06:56:02;99873.41;;;17.95;100.00
30636;BME280;17400;52.392;9.750;2023-08-06T06:58:30;99872.34;;;18.01;100.00
30636;BME280;17400;52.392;9.750;2023-08-06T07:01:00;99866.91;;;18.11;100.00
30636;BME280;17400;52.392;9.750;2023-08-06T07:03:28;99868.56;;;18.23;100.00
30636;BME280;17400;52.392;9.750;2023-08-06T07:05:57;99868.63;;;18.33;100.00
30636;BME280;17400;52.392;9.750;2023-08-06T07:08:25;99867.00;;;18.42;100.00
30636;BME280;17400;52.392;9.750;2023-08-06T07:11:00;99860.44;;;18.48;100.00
30636;BME280;17400;52.392;9.750;2023-08-06T07:13:29;99857.69;;;18.48;100.00
30636;BME280;17400;52.392;9.750;2023-08-06T07:15:56;99859.88;;;18.52;100.00
30636;BME280;17400;52.392;9.750;2023-08-06T07:18:26;99859.34;;;18.60;100.00
30636;BME280;17400;52.392;9.750;2023-08-06T07:20:55;99857.47;;;18.65;100.00
30636;BME280;17400;52.392;9.750;2023-08-06T07:23:24;99865.34;;;18.41;100.00
30636;BME280;17400;52.392;9.750;2023-08-06T07:25:52;99859.59;;;18.38;100.00
30636;BME280;17400;52.392;9.750;2023-08-06T07:28:20;99860.09;;;18.24;100.00
30636;BME280;17400;52.392;9.750;2023-08-06T07:30:49;99859.78;;;18.10;100.00
30636;BME280;17400;52.392;9.750;2023-08-06T07:33:16;99855.97;;;18.27;100.00
30636;BME280;17400;52.392;9.750;2023-08-06T07:35:46;99850.03;;;18.40;100.00
30636;BME280;17400;52.392;9.750;2023-08-06T07:38:14;99850.84;;;18.41;100.00
30636;BME280;17400;52.392;9.750;2023-08-06T07:40:42;99844.78;;;18.44;100.00
30636;BME280;17400;52.392;9.750;2023-08-06T07:43:10;99851.94;;;18.50;100.00
30636;BME280;17400;52.392;9.750;2023-08-06T07:45:38;99850.03;;;18.56;100.00
30636;BME280;17400;52.392;9.750;2023-08-06T07:48:05;99855.78;;;18.49;100.00
30636;BME280;17400;52.392;9.750;2023-08-06T07:50:34;99852.75;;;18.45;100.00
30636;BME280;17400;52.392;9.750;2023-08-06T07:53:03;99858.72;;;18.22;100.00
30636;BME280;17400;52.392;9.750;2023-08-06T07:55:31;99855.41;;;18.14;100.00
30636;BME280;17400;52.392;9.750;2023-08-06T07:57:59;99857.38;;;18.29;100.00
30636;BME280;17400;52.392;9.750;2023-08-06T08:00:26;99850.03;;;18.40;100.00
30636;BME280;17400;52.392;9.750;2023-08-06T08:02:54;99858.78;;;18.47;100.00
30636;BME280;17400;52.392;9.750;2023-08-06T08:05:22;99857.69;;;18.43;100.00
30636;BME280;17400;52.392;9.750;2023-08-06T08:07:50;99859.09;;;18.51;100.00
30636;BME280;17400;52.392;9.750;2023-08-06T08:10:19;99853.63;;;18.61;100.00
30636;BME280;17400;52.392;9.750;2023-08-06T08:12:47;99853.88;;;18.70;100.00
30636;BME280;17400;52.392;9.750;2023-08-06T08:15:15;99848.41;;;18.75;100.00
30636;BME280;17400;52.392;9.750;2023-08-06T08:17:44;99853.88;;;18.70;100.00
30636;BME280;17400;52.392;9.750;2023-08-06T08:20:16;99849.78;;;18.68;100.00
30636;BME280;17400;52.392;9.750;2023-08-06T08:22:44;99852.25;;;18.74;100.00
30636;BME280;17400;52.392;9.750;2023-08-06T08:25:12;99840.72;;;18.82;100.00
30636;BME280;17400;52.392;9.750;2023-08-06T08:27:41;99848.47;;;18.91;100.00
30636;BME280;17400;52.392;9.750;2023-08-06T08:30:09;99848.19;;;18.92;100.00
30636;BME280;17400;52.392;9.750;2023-08-06T08:32:37;99849.00;;;18.93;100.00
30636;BME280;17400;52.392;9.750;2023-08-06T08:35:06;99845.16;;;18.99;100.00
30636;BME280;17400;52.392;9.750;2023-08-06T08:37:33;99845.16;;;19.14;100.00
30636;BME280;17400;52.392;9.750;2023-08-06T08:40:03;99838.03;;;19.29;100.00
30636;BME280;17400;52.392;9.750;2023-08-06T08:42:32;99841.84;;;19.38;100.00
30636;BME280;17400;52.392;9.750;2023-08-06T08:45:01;99833.03;;;19.52;100.00
30636;BME280;17400;52.392;9.750;2023-08-06T08:47:30;99830.50;;;19.65;100.00
30636;BME280;17400;52.392;9.750;2023-08-06T08:49:59;99834.31;;;19.75;100.00
30636;BME280;17400;52.392;9.750;2023-08-06T08:52:29;99830.22;;;19.72;100.00
30636;BME280;17400;52.392;9.750;2023-08-06T08:55:01;99831.03;;;19.78;100.00
30636;BME280;17400;52.392;9.750;2023-08-06T08:57:30;99836.28;;;19.69;100.00
30636;BME280;17400;52.392;9.750;2023-08-06T08:59:57;99837.91;;;19.75;100.00
30636;BME280;17400;52.392;9.750;2023-08-06T09:02:28;99829.66;;;19.75;100.00
30636;BME280;17400;52.392;9.750;2023-08-06T09:04:58;99832.97;;;19.83;100.00
30636;BME280;17400;52.392;9.750;2023-08-06T09:07:32;99828.81;;;19.85;100.00
30636;BME280;17400;52.392;9.750;2023-08-06T09:10:03;99822.78;;;19.83;100.00
30636;BME280;17400;52.392;9.750;2023-08-06T09:12:32;99828.00;;;19.90;100.00
30636;BME280;17400;52.392;9.750;2023-08-06T09:15:00;99821.34;;;19.96;100.00
30636;BME280;17400;52.392;9.750;2023-08-06T09:17:31;99821.88;;;20.08;100.00
30636;BME280;17400;52.392;9.750;2023-08-06T09:19:59;99821.88;;;20.08;100.00
30636;BME280;17400;52.392;9.750;2023-08-06T09:22:36;99809.28;;;19.92;100.00
30636;BME280;17400;52.392;9.750;2023-08-06T09:25:04;99826.34;;;19.94;100.00
30636;BME280;17400;52.392;9.750;2023-08-06T09:27:36;99818.31;;;20.03;100.00
30636;BME280;17400;52.392;9.750;2023-08-06T09:30:05;99809.75;;;20.09;100.00
30636;BME280;17400;52.392;9.750;2023-08-06T09:32:50;99813.53;;;20.19;100.00
30636;BME280;17400;52.392;9.750;2023-08-06T09:35:18;99813.28;;;20.20;100.00
30636;BME280;17400;52.392;9.750;2023-08-06T09:37:47;99805.59;;;20.17;100.00
30636;BME280;17400;52.392;9.750;2023-08-06T09:40:33;99808.75;;;20.40;100.00
30636;BME280;17400;52.392;9.750;2023-08-06T09:43:01;99816.78;;;20.36;100.00
30636;BME280;17400;52.392;9.750;2023-08-06T09:45:33;99814.78;;;20.47;100.00
30636;BME280;17400;52.392;9.750;2023-08-06T09:48:04;99812.69;;;20.68;100.00
30636;BME280;17400;52.392;9.750;2023-08-06T09:50:35;99809.34;;;20.76;100.00
30636;BME280;17400;52.392;9.750;2023-08-06T09:53:04;99806.84;;;20.80;100.00
30636;BME280;17400;52.392;9.750;2023-08-06T09:55:32;99807.63;;;20.86;100.00
30636;BME280;17400;52.392;9.750;2023-08-06T09:58:01;99798.09;;;20.68;100.00
30636;BME280;17400;52.392;9.750;2023-08-06T10:00:29;99799.59;;;20.55;100.00
30636;BME280;17400;52.392;9.750;2023-08-06T10:03:00;99797.66;;;20.55;100.00
30636;BME280;17400;52.392;9.750;2023-08-06T10:05:31;99789.41;;;20.55;100.00
30636;BME280;17400;52.392;9.750;2023-08-06T10:08:00;99799.34;;;20.51;100.00
30636;BME280;17400;52.392;9.750;2023-08-06T10:10:30;99791.13;;;20.46;100.00
30636;BME280;17400;52.392;9.750;2023-08-06T10:12:59;99792.44;;;20.54;100.00
30636;BME280;17400;52.392;9.750;2023-08-06T10:15:31;99782.50;;;20.58;100.00
30636;BME280;17400;52.392;9.750;2023-08-06T10:18:00;99786.59;;;20.71;100.00
30636;BME280;17400;52.392;9.750;2023-08-06T10:20:34;99784.00;;;20.79;99.96
30636;BME280;17400;52.392;9.750;2023-08-06T10:23:03;99780.84;;;20.96;100.00
30636;BME280;17400;52.392;9.750;2023-08-06T10:25:32;99787.34;;;21.06;100.00
30636;BME280;17400;52.392;9.750;2023-08-06T10:28:07;99770.59;;;21.02;100.00
30636;BME280;17400;52.392;9.750;2023-08-06T10:30:41;99772.34;;;20.93;100.00
30636;BME280;17400;52.392;9.750;2023-08-06T10:33:09;99772.19;;;20.79;100.00
30636;BME280;17400;52.392;9.750;2023-08-06T10:35:41;99766.56;;;20.60;100.00
30636;BME280;17400;52.392;9.750;2023-08-06T10:38:12;99767.25;;;20.41;96.85
30636;BME280;17400;52.392;9.750;2023-08-06T10:40:43;99772.56;;;20.27;98.92
30636;BME280;17400;52.392;9.750;2023-08-06T10:43:25;99770.66;;;20.23;100.00
30636;BME280;17400;52.392;9.750;2023-08-06T10:45:54;99767.38;;;20.21;100.00
30636;BME280;17400;52.392;9.750;2023-08-06T10:48:29;99768.47;;;20.25;100.00
30636;BME280;17400;52.392;9.750;2023-08-06T10:51:00;99770.09;;;20.26;98.49
30636;BME280;17400;52.392;9.750;2023-08-06T10:53:28;99766.25;;;20.27;96.81
30636;BME280;17400;52.392;9.750;2023-08-06T10:56:00;99764.53;;;20.36;96.18
30636;BME280;17400;52.392;9.750;2023-08-06T10:58:31;99756.41;;;20.55;98.01
30636;BME280;17400;52.392;9.750;2023-08-06T11:00:59;99753.28;;;20.72;95.23
30636;BME280;17400;52.392;9.750;2023-08-06T11:03:28;99743.63;;;20.75;93.27
30636;BME280;17400;52.392;9.750;2023-08-06T11:05:56;99742.25;;;20.77;94.54
30636;BME280;17400;52.392;9.750;2023-08-06T11:08:26;99739.31;;;20.93;95.25
30636;BME280;17400;52.392;9.750;2023-08-06T11:10:55;99736.53;;;20.98;89.30
30636;BME280;17400;52.392;9.750;2023-08-06T11:13:35;99735.97;;;21.01;87.97
30636;BME280;17400;52.392;9.750;2023-08-06T11:16:05;99732.03;;;21.07;91.47
30636;BME280;17400;52.392;9.750;2023-08-06T11:18:33;99729.63;;;21.01;93.62
30636;BME280;17400;52.392;9.750;2023-08-06T11:21:02;99738.59;;;20.82;95.22
30636;BME280;17400;52.392;9.750;2023-08-06T11:23:31;99735.69;;;20.73;95.58
30636;BME280;17400;52.392;9.750;2023-08-06T11:25:59;99733.50;;;20.70;94.81
30636;BME280;17400;52.392;9.750;2023-08-06T11:28:28;99724.16;;;20.66;95.72
30636;BME280;17400;52.392;9.750;2023-08-06T11:30:56;99723.56;;;20.74;92.59
30636;BME280;17400;52.392;9.750;2023-08-06T11:33:29;99719.56;;;20.91;91.69
30636;BME280;17400;52.392;9.750;2023-08-06T11:35:59;99717.91;;;20.90;90.20
30636;BME280;17400;52.392;9.750;2023-08-06T11:38:29;99715.50;;;20.83;85.58
30636;BME280;17400;52.392;9.750;2023-08-06T11:40:59;99713.50;;;20.89;87.96
30636;BME280;17400;52.392;9.750;2023-08-06T11:43:30;99714.06;;;20.91;85.90
30636;BME280;17400;52.392;9.750;2023-08-06T11:45:59;99716.31;;;21.13;85.31
30636;BME280;17400;52.392;9.750;2023-08-06T11:48:27;99712.50;;;21.33;84.49
30636;BME280;17400;52.392;9.750;2023-08-06T11:50:55;99711.00;;;21.65;84.15
30636;BME280;17400;52.392;9.750;2023-08-06T11:53:27;99720.09;;;21.66;84.23
30636;BME280;17400;52.392;9.750;2023-08-06T11:55:55;99712.78;;;21.56;83.08
30636;BME280;17400;52.392;9.750;2023-08-06T11:58:25;99707.81;;;21.58;83.61
30636;BME280;17400;52.392;9.750;2023-08-06T12:00:53;99710.22;;;21.65;81.04
30636;BME280;17400;52.392;9.750;2023-08-06T12:03:23;99701.66;;;21.66;81.90
30636;BME280;17400;52.392;9.750;2023-08-06T12:05:54;99687.50;;;21.73;81.51
30636;BME280;17400;52.392;9.750;2023-08-06T12:08:26;99693.09;;;21.87;75.90
30636;BME280;17400;52.392;9.750;2023-08-06T12:10:54;99688.22;;;22.17;75.67
30636;BME280;17400;52.392;9.750;2023-08-06T12:13:22;99682.44;;;22.37;78.06
30636;BME280;17400;52.392;9.750;2023-08-06T12:15:53;99697.34;;;22.36;75.46
30636;BME280;17400;52.392;9.750;2023-08-06T12:18:21;99691.44;;;22.43;72.42
30636;BME280;17400;52.392;9.750;2023-08-06T12:20:49;99689.28;;;22.40;71.14
30636;BME280;17400;52.392;9.750;2023-08-06T12:23:17;99691.41;;;22.24;70.95
30636;BME280;17400;52.392;9.750;2023-08-06T12:25:45;99684.44;;;22.12;73.11
30636;BME280;17400;52.392;9.750;2023-08-06T12:28:13;99680.03;;;22.11;73.79
30636;BME280;17400;52.392;9.750;2023-08-06T12:30:41;99674.91;;;22.05;73.20
30636;BME280;17400;52.392;9.750;2023-08-06T12:33:12;99674.38;;;22.03;73.02
30636;BME280;17400;52.392;9.750;2023-08-06T12:35:40;99673.41;;;21.93;75.90
30636;BME280;17400;52.392;9.750;2023-08-06T12:38:08;99682.66;;;21.84;74.82
30636;BME280;17400;52.392;9.750;2023-08-06T12:40:36;99682.72;;;21.78;74.64
30636;BME280;17400;52.392;9.750;2023-08-06T12:43:09;99683.56;;;21.79;77.67
30636;BME280;17400;52.392;9.750;2023-08-06T12:45:37;99683.19;;;21.86;79.21
30636;BME280;17400;52.392;9.750;2023-08-06T12:48:05;99674.34;;;21.89;80.04
30636;BME280;17400;52.392;9.750;2023-08-06T12:50:35;99677.75;;;21.80;80.05
30636;BME280;17400;52.392;9.750;2023-08-06T12:53:03;99676.88;;;21.66;79.40
30636;BME280;17400;52.392;9.750;2023-08-06T12:55:32;99681.09;;;21.58;81.07
30636;BME280;17400;52.392;9.750;2023-08-06T12:58:00;99680.88;;;21.50;78.87
30636;BME280;17400;52.392;9.750;2023-08-06T13:00:28;99682.91;;;21.44;79.50